Time;durP1;ratioP1;P1;durP2;ratioP2;P2;SDS_P1;SDS_P2;PMS_P1;PMS_P2;Temp;Humidity;BMP_temperature;BMP_pressure;BME280_temperature;BME280_humidity;BME280_pressure;Samples;Min_cycle;Max_cycle;Signal;HPM_P1;HPM_P2
2023/05/26 00:02:07;;;;;;;26.90;22.10;;;;;;;12.00;100.00;97260.31;109151;1273;22988;-79
2023/05/26 00:04:39;;;;;;;27.90;21.30;;;;;;;12.01;100.00;97257.59;109156;1273;24253;-80
2023/05/26 00:07:10;;;;;;;28.80;21.90;;;;;;;12.03;100.00;97262.95;109127;1273;22573;-80
2023/05/26 00:09:41;;;;;;;32.00;23.80;;;;;;;12.04;100.00;97261.66;109172;1273;22575;-79
2023/05/26 00:12:12;;;;;;;30.80;24.10;;;;;;;12.04;100.00;97261.98;109139;1266;22514;-79
2023/05/26 00:14:43;;;;;;;31.50;23.80;;;;;;;12.00;100.00;97258.17;109165;1273;22581;-79
2023/05/26 00:17:16;;;;;;;29.10;23.00;;;;;;;11.98;100.00;97256.33;109109;1265;23892;-79
2023/05/26 00:19:49;;;;;;;37.80;27.60;;;;;;;11.96;100.00;97261.15;109113;1273;22465;-80
2023/05/26 00:22:21;;;;;;;32.60;25.40;;;;;;;11.96;100.00;97258.87;109114;1268;22523;-79
2023/05/26 00:24:53;;;;;;;29.70;24.70;;;;;;;11.95;100.00;97258.39;109124;1273;22862;-79
2023/05/26 00:27:24;;;;;;;32.30;24.60;;;;;;;11.96;100.00;97256.52;109099;1266;22473;-80
2023/05/26 00:29:58;;;;;;;30.60;23.70;;;;;;;11.96;100.00;97255.63;109166;1273;22721;-79
2023/05/26 00:32:28;;;;;;;30.00;25.00;;;;;;;11.97;100.00;97251.82;109098;1267;22564;-80
2023/05/26 00:34:59;;;;;;;31.20;23.90;;;;;;;11.97;100.00;97254.20;109144;1273;24173;-79
2023/05/26 00:37:31;;;;;;;30.70;23.60;;;;;;;11.98;100.00;97258.83;109087;1273;22483;-80
2023/05/26 00:40:02;;;;;;;32.20;25.90;;;;;;;12.00;100.00;97254.46;109110;1273;22484;-80
2023/05/26 00:42:33;;;;;;;29.90;23.60;;;;;;;12.02;100.00;97251.20;109117;1273;22525;-79
2023/05/26 00:45:04;;;;;;;31.00;23.90;;;;;;;12.05;100.00;97251.67;109135;1268;22529;-80
2023/05/26 00:47:35;;;;;;;30.10;26.20;;;;;;;12.07;100.00;97251.34;109107;1267;23860;-79
2023/05/26 00:50:07;;;;;;;30.90;25.00;;;;;;;12.08;100.00;97251.44;109141;1267;22691;-79
2023/05/26 00:52:38;;;;;;;27.70;24.10;;;;;;;12.11;100.00;97244.42;109174;1269;25083;-79
2023/05/26 00:55:11;;;;;;;38.10;27.40;;;;;;;12.11;100.00;97240.40;109026;1266;22655;-79
2023/05/26 00:57:43;;;;;;;33.90;26.70;;;;;;;12.08;100.00;97239.70;109111;1273;22551;-79
2023/05/26 01:00:16;;;;;;;37.70;26.40;;;;;;;12.04;100.00;97236.20;109120;1273;23603;-79
2023/05/26 01:02:49;;;;;;;31.80;25.00;;;;;;;12.01;100.00;97237.98;109128;1273;25442;-79
2023/05/26 01:05:20;;;;;;;35.10;27.10;;;;;;;12.00;100.00;97233.62;109164;1273;22609;-79
2023/05/26 01:07:52;;;;;;;34.20;27.10;;;;;;;12.00;100.00;97233.63;109102;1273;25415;-79
2023/05/26 01:10:24;;;;;;;37.50;26.30;;;;;;;12.00;100.00;97234.20;109102;1273;22567;-79
2023/05/26 01:13:01;;;;;;;37.00;29.40;;;;;;;11.98;100.00;97235.66;109058;1268;22568;-79
2023/05/26 01:15:37;;;;;;;37.70;28.00;;;;;;;11.97;100.00;97235.61;109033;1273;22524;-80
2023/05/26 01:18:13;;;;;;;39.40;29.20;;;;;;;11.96;100.00;97238.41;109067;1273;22521;-79
2023/05/26 01:20:49;;;;;;;33.70;27.40;;;;;;;11.97;100.00;97236.55;109056;1266;22524;-79
2023/05/26 01:23:58;;;;;;;42.60;31.50;;;;;;;11.98;100.00;97230.45;109078;1266;22515;-80
2023/05/26 01:26:53;;;;;;;38.60;30.60;;;;;;;11.99;100.00;97233.74;108879;1267;22548;-80
2023/05/26 01:29:26;;;;;;;34.80;26.50;;;;;;;11.99;100.00;97234.32;109106;1269;22535;-80
2023/05/26 01:32:05;;;;;;;40.10;30.20;;;;;;;11.98;100.00;97233.38;109075;1266;22570;-80
2023/05/26 01:34:36;;;;;;;41.70;29.90;;;;;;;11.96;100.00;97233.38;109066;1268;22533;-79
2023/05/26 01:37:07;;;;;;;34.00;27.60;;;;;;;11.94;100.00;97228.90;109077;1273;22577;-80
2023/05/26 01:39:39;;;;;;;35.10;26.40;;;;;;;11.93;100.00;97234.96;109117;1269;22576;-80
2023/05/26 01:42:19;;;;;;;32.90;26.00;;;;;;;11.90;100.00;97237.38;109061;1270;22514;-79
2023/05/26 01:44:58;;;;;;;35.50;27.20;;;;;;;11.89;100.00;97235.63;109093;1266;22528;-79
2023/05/26 01:47:31;;;;;;;32.70;27.30;;;;;;;11.87;100.00;97232.55;109013;1269;26408;-79
2023/05/26 01:50:06;;;;;;;35.90;26.80;;;;;;;11.87;100.00;97235.10;109011;1273;22550;-79
2023/05/26 01:52:42;;;;;;;32.90;26.20;;;;;;;11.85;100.00;97233.35;109028;1268;22552;-79
2023/05/26 01:55:14;;;;;;;36.40;26.30;;;;;;;11.85;100.00;97231.66;109070;1268;22524;-79
2023/05/26 01:57:47;;;;;;;33.20;26.50;;;;;;;11.84;100.00;97231.23;109002;1273;22513;-79
2023/05/26 02:00:26;;;;;;;35.00;26.60;;;;;;;11.83;100.00;97228.52;109132;1273;22508;-79
2023/05/26 02:02:57;;;;;;;32.20;25.40;;;;;;;11.82;100.00;97231.98;109094;1273;25246;-79
2023/05/26 02:05:28;;;;;;;35.20;26.90;;;;;;;11.82;100.00;97227.79;109038;1266;22538;-79
2023/05/26 02:08:00;;;;;;;32.30;26.30;;;;;;;11.83;100.00;97227.27;109003;1273;22521;-79
2023/05/26 02:10:31;;;;;;;31.80;27.00;;;;;;;11.84;100.00;97224.81;109093;1273;22521;-79
2023/05/26 02:13:02;;;;;;;32.10;26.80;;;;;;;11.86;100.00;97227.45;109107;1273;22566;-79
2023/05/26 02:15:33;;;;;;;32.40;25.70;;;;;;;11.89;100.00;97227.65;109019;1273;22536;-79
2023/05/26 02:18:04;;;;;;;32.40;26.10;;;;;;;11.92;100.00;97226.52;109088;1273;22550;-79
2023/05/26 02:20:35;;;;;;;28.70;24.60;;;;;;;11.92;100.00;97223.70;109069;1266;22539;-79
2023/05/26 02:23:09;;;;;;;32.30;25.40;;;;;;;11.91;100.00;97220.15;109012;1273;22532;-79
2023/05/26 02:25:40;;;;;;;27.30;22.70;;;;;;;11.91;100.00;97219.35;109018;1266;25409;-79
2023/05/26 02:28:11;;;;;;;31.80;24.30;;;;;;;11.91;100.00;97216.11;109051;1273;22521;-79
2023/05/26 02:30:42;;;;;;;30.10;24.40;;;;;;;11.91;100.00;97215.69;109033;1273;25384;-79
2023/05/26 02:33:13;;;;;;;31.80;24.90;;;;;;;11.92;100.00;97216.01;109032;1250;22546;-79
2023/05/26 02:35:44;;;;;;;33.50;25.70;;;;;;;11.92;100.00;97211.48;108951;1267;22789;-79
2023/05/26 02:38:15;;;;;;;31.20;24.90;;;;;;;11.91;100.00;97213.45;108967;1268;22595;-79
2023/05/26 02:40:46;;;;;;;31.70;25.30;;;;;;;11.88;100.00;97207.67;108949;1269;22538;-79
2023/05/26 02:43:17;;;;;;;31.20;24.80;;;;;;;11.84;100.00;97206.21;109005;1273;22552;-79
2023/05/26 02:45:48;;;;;;;31.00;23.80;;;;;;;11.82;100.00;97207.48;108949;1250;22560;-79
2023/05/26 02:48:19;;;;;;;30.10;24.00;;;;;;;11.81;100.00;97207.48;108977;1273;22514;-79
2023/05/26 02:50:50;;;;;;;29.60;23.20;;;;;;;11.79;100.00;97207.90;108964;1270;25257;-79
2023/05/26 02:53:21;;;;;;;33.70;26.30;;;;;;;11.78;100.00;97207.46;108973;1273;22531;-79
2023/05/26 02:55:52;;;;;;;33.60;26.40;;;;;;;11.75;100.00;97203.65;108985;1273;22540;-79
2023/05/26 02:58:23;;;;;;;34.70;26.10;;;;;;;11.73;100.00;97206.70;108968;1273;22525;-79
2023/05/26 03:00:54;;;;;;;35.60;27.70;;;;;;;11.71;100.00;97206.70;108954;1273;22521;-79
2023/05/26 03:03:26;;;;;;;38.10;29.50;;;;;;;11.69;100.00;97206.59;108970;1273;25563;-79
2023/05/26 03:05:58;;;;;;;35.30;29.70;;;;;;;11.66;100.00;97211.43;108944;1273;23618;-79
2023/05/26 03:08:29;;;;;;;32.60;25.60;;;;;;;11.65;100.00;97209.67;108948;1270;22535;-79
2023/05/26 03:11:00;;;;;;;33.40;26.20;;;;;;;11.63;100.00;97208.58;108950;1273;22517;-79
2023/05/26 03:13:31;;;;;;;33.60;26.80;;;;;;;11.61;100.00;97207.20;108964;1268;22534;-79
2023/05/26 03:16:02;;;;;;;31.70;25.40;;;;;;;11.60;100.00;97207.89;108966;1273;22537;-79
2023/05/26 03:18:33;;;;;;;37.50;27.50;;;;;;;11.60;100.00;97206.24;108958;1273;22540;-79
2023/05/26 03:21:06;;;;;;;31.60;24.10;;;;;;;11.61;100.00;97206.66;108976;1273;22528;-79
2023/05/26 03:23:38;;;;;;;32.40;24.30;;;;;;;11.61;100.00;97204.64;108957;1273;22573;-78
2023/05/26 03:26:15;;;;;;;33.10;24.40;;;;;;;11.60;100.00;97206.30;108857;1275;25247;-79
2023/05/26 03:28:46;;;;;;;34.10;25.90;;;;;;;11.61;100.00;97204.91;108898;1275;22521;-79
2023/05/26 03:31:17;;;;;;;32.50;25.30;;;;;;;11.62;100.00;97203.69;108929;1275;22520;-79
2023/05/26 03:33:48;;;;;;;34.80;24.30;;;;;;;11.64;100.00;97202.14;108899;1269;25241;-79
2023/05/26 03:36:19;;;;;;;33.70;27.10;;;;;;;11.65;100.00;97196.55;108894;1268;22518;-79
2023/05/26 03:38:50;;;;;;;33.20;24.70;;;;;;;11.67;100.00;97198.51;108915;1268;22511;-79
2023/05/26 03:41:21;;;;;;;32.40;25.50;;;;;;;11.68;100.00;97200.10;108912;1268;22563;-80
2023/05/26 03:43:52;;;;;;;36.00;26.70;;;;;;;11.70;100.00;97202.04;108876;1268;22554;-78
2023/05/26 03:46:23;;;;;;;32.80;25.30;;;;;;;11.70;100.00;97201.82;108879;1275;22521;-79
2023/05/26 03:48:54;;;;;;;31.60;24.70;;;;;;;11.69;100.00;97203.14;108895;1275;24280;-79
2023/05/26 03:51:25;;;;;;;33.00;27.20;;;;;;;11.69;100.00;97200.28;108912;1275;22576;-79
2023/05/26 03:53:56;;;;;;;32.30;25.90;;;;;;;11.69;100.00;97195.30;108892;1275;22612;-79
2023/05/26 03:56:27;;;;;;;37.00;27.40;;;;;;;11.70;100.00;97197.14;108925;1268;24280;-79
2023/05/26 03:58:58;;;;;;;36.50;27.70;;;;;;;11.70;100.00;97195.65;108920;1275;22541;-79
2023/05/26 04:01:29;;;;;;;34.00;28.00;;;;;;;11.72;100.00;97194.69;108908;1275;23311;-79
2023/05/26 04:04:00;;;;;;;35.80;27.30;;;;;;;11.75;100.00;97187.45;108944;1275;22511;-79
2023/05/26 04:06:31;;;;;;;36.10;26.80;;;;;;;11.78;100.00;97187.34;108898;1275;25522;-79
2023/05/26 04:09:03;;;;;;;34.40;26.80;;;;;;;11.84;100.00;97188.61;108885;1268;22646;-79
2023/05/26 04:11:35;;;;;;;32.60;25.80;;;;;;;11.93;100.00;97186.45;108898;1271;25373;-79
2023/05/26 04:14:08;;;;;;;31.50;25.10;;;;;;;12.01;100.00;97188.66;108899;1271;22626;-79
2023/05/26 04:16:39;;;;;;;32.10;24.20;;;;;;;12.12;100.00;97183.50;108970;1268;26634;-79
2023/05/26 04:19:10;;;;;;;28.80;22.00;;;;;;;12.26;100.00;97186.45;108920;1275;22518;-78
2023/05/26 04:21:41;;;;;;;32.30;23.90;;;;;;;12.40;100.00;97185.58;108935;1275;24198;-79
2023/05/26 04:24:14;;;;;;;32.10;24.80;;;;;;;12.52;100.00;97183.00;108925;1271;22544;-80
2023/05/26 04:26:45;;;;;;;32.10;23.30;;;;;;;12.63;100.00;97184.73;108979;1273;24845;-79
2023/05/26 04:29:16;;;;;;;27.80;23.00;;;;;;;12.75;100.00;97183.52;108948;1269;22557;-79
2023/05/26 04:31:47;;;;;;;31.50;24.30;;;;;;;12.85;100.00;97185.11;108977;1273;22573;-79
2023/05/26 04:34:21;;;;;;;31.50;22.30;;;;;;;12.92;100.00;97187.39;108962;1266;22973;-79
2023/05/26 04:36:53;;;;;;;31.20;23.50;;;;;;;12.98;100.00;97186.92;108965;1274;25246;-79
2023/05/26 04:39:24;;;;;;;30.10;21.90;;;;;;;13.03;100.00;97188.85;109003;1269;22534;-79
2023/05/26 04:41:55;;;;;;;33.30;23.90;;;;;;;13.08;100.00;97192.27;109003;1267;22515;-80
2023/05/26 04:44:26;;;;;;;28.60;23.50;;;;;;;13.12;100.00;97193.94;109005;1274;22635;-79
2023/05/26 04:46:57;;;;;;;31.40;23.00;;;;;;;13.16;100.00;97191.98;108944;1274;25372;-79
2023/05/26 04:49:29;;;;;;;30.50;23.50;;;;;;;13.23;100.00;97192.74;108950;1270;22531;-79
2023/05/26 04:52:01;;;;;;;34.40;24.10;;;;;;;13.38;100.00;97197.24;108997;1274;23696;-79
2023/05/26 04:54:34;;;;;;;39.40;25.60;;;;;;;13.55;100.00;97195.31;108943;1274;22507;-79
2023/05/26 04:57:06;;;;;;;31.00;23.40;;;;;;;13.72;100.00;97198.21;108976;1274;22515;-79
2023/05/26 04:59:38;;;;;;;31.90;23.90;;;;;;;13.89;100.00;97192.59;108994;1274;24215;-79
2023/05/26 05:02:09;;;;;;;29.10;23.10;;;;;;;14.08;100.00;97197.69;108922;1269;22571;-79
2023/05/26 05:04:41;;;;;;;29.60;23.30;;;;;;;14.26;100.00;97198.36;109000;1266;25234;-79
2023/05/26 05:07:12;;;;;;;28.60;22.20;;;;;;;14.63;100.00;97197.35;108944;1271;22505;-79
2023/05/26 05:09:43;;;;;;;32.70;23.60;;;;;;;15.14;100.00;97199.27;108909;1273;23031;-79
2023/05/26 05:12:14;;;;;;;29.40;22.40;;;;;;;15.62;99.98;97199.95;108980;1273;25361;-80
2023/05/26 05:14:45;;;;;;;28.20;21.40;;;;;;;15.93;99.35;97198.66;108976;1269;22513;-79
2023/05/26 05:17:16;;;;;;;30.90;22.40;;;;;;;16.77;100.00;97197.38;108942;1266;25420;-79
2023/05/26 05:19:46;;;;;;;27.80;22.70;;;;;;;17.62;98.36;97193.48;108992;1274;22531;-79
2023/05/26 05:22:17;;;;;;;30.10;21.90;;;;;;;18.03;96.30;97193.84;108920;1274;22613;-79
2023/05/26 05:24:49;;;;;;;24.80;20.60;;;;;;;18.71;95.99;97188.73;108931;1266;25013;-79
2023/05/26 05:27:20;;;;;;;24.90;20.20;;;;;;;19.30;93.94;97188.73;108913;1272;22535;-79
2023/05/26 05:29:51;;;;;;;24.00;21.40;;;;;;;19.87;92.62;97188.92;108983;1274;22492;-79
2023/05/26 05:32:22;;;;;;;21.40;17.50;;;;;;;20.27;90.33;97187.25;108998;1273;24250;-79
2023/05/26 05:34:53;;;;;;;20.30;17.50;;;;;;;19.83;85.37;97187.59;108979;1274;26440;-79
2023/05/26 05:37:24;;;;;;;21.20;18.20;;;;;;;18.76;83.73;97182.67;108929;1273;22887;-79
2023/05/26 05:39:55;;;;;;;21.50;18.10;;;;;;;17.90;83.74;97187.97;108971;1268;25249;-79
2023/05/26 05:42:26;;;;;;;22.70;19.50;;;;;;;17.55;85.01;97190.98;108991;1269;25237;-79
2023/05/26 05:44:57;;;;;;;22.70;19.10;;;;;;;17.31;85.17;97191.49;108968;1262;24213;-79
2023/05/26 05:47:28;;;;;;;20.80;17.50;;;;;;;17.33;86.32;97193.11;108979;1273;24736;-79
2023/05/26 05:49:59;;;;;;;22.10;18.20;;;;;;;17.53;86.66;97194.58;108985;1274;22528;-79
2023/05/26 05:52:29;;;;;;;19.10;16.40;;;;;;;17.79;86.95;97197.36;108983;1274;22514;-79
2023/05/26 05:55:00;;;;;;;21.10;16.50;;;;;;;18.52;88.70;97198.88;108965;1270;22512;-79
2023/05/26 05:57:31;;;;;;;21.40;16.40;;;;;;;19.96;89.32;97203.36;108966;1273;22650;-79
2023/05/26 06:00:02;;;;;;;18.20;15.30;;;;;;;21.16;86.60;97206.20;108963;1266;22532;-79
2023/05/26 06:02:33;;;;;;;19.40;16.10;;;;;;;21.49;81.29;97206.49;108959;1274;22512;-80
2023/05/26 06:05:04;;;;;;;19.00;15.40;;;;;;;20.76;77.89;97215.20;108961;1266;25403;-79
2023/05/26 06:07:35;;;;;;;18.20;14.90;;;;;;;20.65;79.99;97216.19;108959;1274;26752;-79
2023/05/26 06:10:09;;;;;;;17.20;15.40;;;;;;;21.57;80.57;97213.15;108958;1273;23350;-79
2023/05/26 06:12:40;;;;;;;19.20;14.90;;;;;;;22.43;78.59;97209.75;108969;1274;22574;-79
2023/05/26 06:15:12;;;;;;;16.50;14.10;;;;;;;22.95;76.55;97207.48;108941;1273;22541;-79
2023/05/26 06:17:43;;;;;;;16.60;13.90;;;;;;;23.29;73.62;97209.21;108968;1273;22615;-80
2023/05/26 06:20:14;;;;;;;16.60;13.20;;;;;;;23.09;71.69;97204.41;108933;1274;22559;-79
2023/05/26 06:22:45;;;;;;;19.30;14.80;;;;;;;22.64;70.87;97207.05;109017;1273;22561;-79
2023/05/26 06:25:16;;;;;;;15.70;13.70;;;;;;;22.44;69.04;97206.00;108935;1273;22519;-79
2023/05/26 06:27:46;;;;;;;17.30;13.50;;;;;;;21.77;68.80;97208.96;108954;1273;22627;-80
2023/05/26 06:30:18;;;;;;;15.50;12.10;;;;;;;21.27;69.07;97210.11;108990;1272;22530;-79
2023/05/26 06:32:48;;;;;;;14.80;12.60;;;;;;;20.56;68.42;97216.64;108997;1274;22518;-80
2023/05/26 06:35:21;;;;;;;17.50;13.00;;;;;;;19.88;68.88;97219.27;108961;1273;22557;-80
2023/05/26 06:37:52;;;;;;;16.30;12.50;;;;;;;19.35;69.28;97216.28;108973;1274;23854;-80
2023/05/26 06:40:23;;;;;;;16.80;13.20;;;;;;;18.98;70.31;97219.15;108951;1273;28378;-80
2023/05/26 06:42:54;;;;;;;16.60;12.90;;;;;;;18.74;70.50;97222.06;108972;1274;22545;-80
2023/05/26 06:45:25;;;;;;;17.20;13.30;;;;;;;18.47;70.84;97224.55;108937;1273;25300;-80
2023/05/26 06:47:56;;;;;;;16.10;12.80;;;;;;;18.27;71.74;97225.79;108928;1273;22533;-80
2023/05/26 06:50:27;;;;;;;16.80;13.00;;;;;;;18.21;72.25;97227.58;108945;1274;22536;-80
2023/05/26 06:52:57;;;;;;;18.50;13.20;;;;;;;18.11;72.52;97229.41;108972;1274;25415;-80
2023/05/26 06:55:28;;;;;;;15.80;13.30;;;;;;;18.03;72.77;97232.30;108916;1273;22528;-80
2023/05/26 06:57:59;;;;;;;15.70;13.50;;;;;;;18.03;73.35;97231.94;108969;1274;22521;-80
2023/05/26 07:00:32;;;;;;;15.70;13.20;;;;;;;18.18;73.63;97233.73;108994;1266;22515;-80
2023/05/26 07:03:03;;;;;;;17.40;13.20;;;;;;;18.29;73.61;97229.68;109009;1274;22641;-80
2023/05/26 07:05:36;;;;;;;15.40;11.70;;;;;;;18.32;73.36;97229.29;108943;1273;22563;-80
2023/05/26 07:08:07;;;;;;;16.00;12.90;;;;;;;18.42;73.92;97231.79;109000;1274;22532;-80
2023/05/26 07:10:38;;;;;;;18.50;14.40;;;;;;;18.43;73.51;97232.84;108984;1273;22546;-80
2023/05/26 07:13:08;;;;;;;17.80;14.40;;;;;;;18.34;73.72;97234.48;108969;1273;22513;-80
2023/05/26 07:15:39;;;;;;;16.70;13.60;;;;;;;18.31;74.38;97229.66;108908;1272;25428;-80
2023/05/26 07:18:10;;;;;;;16.60;13.50;;;;;;;18.31;74.33;97231.96;108954;1270;22538;-79
2023/05/26 07:20:41;;;;;;;20.90;14.10;;;;;;;18.12;73.47;97233.14;108947;1273;25374;-80
2023/05/26 07:23:12;;;;;;;15.80;14.10;;;;;;;18.01;73.65;97231.68;108983;1270;22942;-80
2023/05/26 07:25:43;;;;;;;18.00;13.00;;;;;;;17.95;73.89;97231.02;108981;1266;22623;-80
2023/05/26 07:28:14;;;;;;;15.00;13.40;;;;;;;17.88;74.06;97232.45;109032;1274;22535;-80
2023/05/26 07:30:45;;;;;;;17.40;13.70;;;;;;;17.78;74.04;97239.27;108936;1273;22546;-80
2023/05/26 07:33:17;;;;;;;15.40;13.30;;;;;;;17.72;74.47;97238.44;108953;1254;24423;-80
2023/05/26 07:35:48;;;;;;;15.50;13.30;;;;;;;17.79;75.09;97241.75;109001;1267;22728;-80
2023/05/26 07:38:19;;;;;;;15.60;12.10;;;;;;;17.80;75.09;97239.52;108963;1271;22575;-80
2023/05/26 07:40:51;;;;;;;15.30;11.20;;;;;;;17.83;75.23;97239.52;108968;1274;23807;-80
2023/05/26 07:43:21;;;;;;;13.20;10.20;;;;;;;17.81;75.35;97236.55;108923;1270;22617;-80
2023/05/26 07:45:52;;;;;;;13.50;11.00;;;;;;;17.77;74.59;97242.98;108966;1274;22514;-80
2023/05/26 07:48:23;;;;;;;13.80;11.20;;;;;;;17.73;74.79;97243.05;108956;1272;24216;-80
2023/05/26 07:50:54;;;;;;;14.00;11.70;;;;;;;17.94;75.24;97241.66;108940;1273;22518;-80
2023/05/26 07:53:25;;;;;;;14.80;12.00;;;;;;;18.22;74.58;97243.68;108975;1274;23734;-80
2023/05/26 07:55:56;;;;;;;15.30;12.30;;;;;;;18.20;73.79;97245.10;108939;1270;22525;-80
2023/05/26 07:58:27;;;;;;;14.90;12.30;;;;;;;18.10;73.95;97244.94;108934;1273;22521;-80
2023/05/26 08:00:58;;;;;;;14.70;12.50;;;;;;;18.42;75.21;97250.36;108946;1266;22518;-80
2023/05/26 08:03:29;;;;;;;18.80;13.40;;;;;;;18.97;74.04;97248.80;108978;1266;22546;-80
2023/05/26 08:06:00;;;;;;;15.50;12.10;;;;;;;19.42;74.43;97247.78;108922;1250;22530;-80
2023/05/26 08:08:31;;;;;;;17.50;12.40;;;;;;;19.96;73.87;97246.88;108955;1272;22530;-80
2023/05/26 08:11:02;;;;;;;15.90;12.00;;;;;;;20.51;73.07;97247.31;108972;1274;22591;-80
2023/05/26 08:13:33;;;;;;;16.90;11.50;;;;;;;20.91;71.50;97241.46;108966;1272;25281;-80
2023/05/26 08:16:04;;;;;;;14.50;11.10;;;;;;;21.14;70.81;97242.09;108938;1274;22529;-80
2023/05/26 08:18:35;;;;;;;12.20;10.30;;;;;;;21.30;70.04;97240.70;108966;1274;22521;-80
2023/05/26 08:21:06;;;;;;;15.40;12.40;;;;;;;21.48;69.21;97240.06;108920;1273;23256;-80
2023/05/26 08:23:37;;;;;;;15.10;11.70;;;;;;;21.26;67.92;97241.73;109004;1266;22516;-80
2023/05/26 08:26:08;;;;;;;12.40;11.00;;;;;;;20.96;67.49;97244.96;108919;1271;22556;-80
2023/05/26 08:28:39;;;;;;;14.00;11.40;;;;;;;20.47;66.42;97245.97;108913;1275;22828;-80
2023/05/26 08:31:10;;;;;;;13.80;11.10;;;;;;;20.26;68.06;97249.14;108925;1271;22661;-81
2023/05/26 08:33:41;;;;;;;13.80;10.90;;;;;;;20.20;68.12;97250.06;108940;1275;22560;-80
2023/05/26 08:36:12;;;;;;;14.60;11.40;;;;;;;20.00;67.85;97249.81;108857;1271;24642;-80
2023/05/26 08:38:44;;;;;;;13.80;10.70;;;;;;;19.87;68.61;97249.35;108888;1275;22522;-81
2023/05/26 08:41:20;;;;;;;14.60;10.30;;;;;;;19.66;67.95;97247.45;108891;1275;22530;-80
2023/05/26 08:43:58;;;;;;;11.20;9.80;;;;;;;19.44;67.94;97247.70;108871;1275;22541;-80
2023/05/26 08:46:30;;;;;;;14.40;11.30;;;;;;;19.43;68.44;97247.80;108881;1275;22599;-80
2023/05/26 08:49:01;;;;;;;12.10;9.20;;;;;;;19.58;69.18;97246.15;108854;1270;22503;-80
2023/05/26 08:51:37;;;;;;;14.40;11.00;;;;;;;19.76;69.17;97245.45;108833;1275;22565;-80
2023/05/26 08:54:07;;;;;;;11.70;9.90;;;;;;;20.06;70.04;97241.45;108867;1275;24193;-80
2023/05/26 08:56:39;;;;;;;10.00;8.20;;;;;;;20.36;69.50;97236.34;108909;1268;24602;-80
2023/05/26 08:59:13;;;;;;;11.30;8.90;;;;;;;20.54;69.11;97236.42;108960;1275;22545;-81
2023/05/26 09:01:44;;;;;;;10.90;8.30;;;;;;;20.64;68.05;97236.72;108957;1268;22528;-81
2023/05/26 09:04:15;;;;;;;11.90;9.30;;;;;;;20.74;67.52;97237.56;108995;1271;22554;-80
2023/05/26 09:06:47;;;;;;;11.80;9.20;;;;;;;20.76;67.18;97235.17;108974;1272;22523;-81
2023/05/26 09:09:19;;;;;;;13.00;9.40;;;;;;;20.84;66.88;97230.52;108988;1271;24494;-81
2023/05/26 09:11:50;;;;;;;11.80;8.70;;;;;;;20.79;66.70;97231.86;108938;1275;24639;-81
2023/05/26 09:14:23;;;;;;;10.20;8.40;;;;;;;20.93;67.87;97229.02;108881;1271;22755;-81
2023/05/26 09:16:59;;;;;;;8.70;6.90;;;;;;;21.07;66.94;97233.05;108876;1275;23201;-81
2023/05/26 09:19:30;;;;;;;8.50;7.30;;;;;;;20.94;64.24;97234.20;108924;1275;22522;-81
2023/05/26 09:22:08;;;;;;;9.70;6.70;;;;;;;20.70;63.63;97230.25;108903;1272;22540;-81
2023/05/26 09:24:49;;;;;;;11.10;7.10;;;;;;;20.50;63.86;97231.11;108953;1274;23172;-81
2023/05/26 09:27:23;;;;;;;11.30;6.90;;;;;;;20.40;64.58;97229.14;108927;1273;22621;-81
2023/05/26 09:29:55;;;;;;;9.60;6.60;;;;;;;20.38;64.87;97229.55;108936;1273;22517;-81
2023/05/26 09:32:29;;;;;;;10.80;7.20;;;;;;;20.44;65.06;97226.97;108988;1272;22534;-81
2023/05/26 09:35:03;;;;;;;7.70;6.10;;;;;;;20.32;64.73;97230.69;109005;1262;22634;-81
2023/05/26 09:37:34;;;;;;;12.00;7.10;;;;;;;20.31;65.51;97228.58;108906;1273;22549;-81
2023/05/26 09:40:14;;;;;;;13.70;7.90;;;;;;;20.28;65.41;97227.55;108846;1274;124731;-81
2023/05/26 09:42:53;;;;;;;11.00;8.00;;;;;;;20.25;65.79;97230.33;108982;1274;25412;-82
2023/05/26 09:45:24;;;;;;;9.90;7.30;;;;;;;20.21;65.67;97229.39;108933;1273;41355;-82
2023/05/26 09:47:57;;;;;;;10.30;7.90;;;;;;;20.15;65.68;97224.90;108952;1273;22641;-81
2023/05/26 09:50:30;;;;;;;10.30;7.90;;;;;;;20.11;65.84;97227.11;108951;1273;24333;-82
2023/05/26 09:53:02;;;;;;;12.50;8.70;;;;;;;20.15;66.14;97221.73;108982;1274;22525;-81
2023/05/26 09:55:35;;;;;;;13.30;8.70;;;;;;;20.23;66.92;97220.16;108951;1273;23901;-82
2023/05/26 09:58:08;;;;;;;12.00;9.40;;;;;;;20.28;66.02;97220.07;108974;1273;22579;-81
2023/05/26 10:00:42;;;;;;;14.80;9.50;;;;;;;20.14;65.24;97219.06;108962;1272;22526;-81
2023/05/26 10:03:14;;;;;;;12.00;9.20;;;;;;;19.98;65.26;97220.44;108956;1269;22661;-81
2023/05/26 10:05:47;;;;;;;12.30;9.20;;;;;;;19.97;65.72;97215.59;108936;1273;25265;-81
2023/05/26 10:08:22;;;;;;;10.60;8.00;;;;;;;19.95;65.35;97212.76;108976;1273;22498;-81
2023/05/26 10:10:53;;;;;;;10.20;8.80;;;;;;;19.90;65.28;97215.29;108947;1274;25291;-81
2023/05/26 10:13:25;;;;;;;11.60;9.20;;;;;;;19.86;65.62;97215.96;108983;1274;25366;-81
2023/05/26 10:15:56;;;;;;;13.70;10.20;;;;;;;19.79;65.46;97214.66;108901;1273;24209;-82
2023/05/26 10:18:27;;;;;;;11.40;9.30;;;;;;;19.72;65.62;97212.39;108906;1273;22509;-81
2023/05/26 10:21:01;;;;;;;10.50;9.20;;;;;;;19.74;66.02;97214.92;108949;1274;22543;-81
2023/05/26 10:23:37;;;;;;;11.10;8.80;;;;;;;19.71;65.92;97208.98;108987;1272;22521;-82
2023/05/26 10:26:14;;;;;;;10.50;8.40;;;;;;;19.61;65.51;97210.78;108912;1274;30774;-81
2023/05/26 10:28:52;;;;;;;13.10;8.70;;;;;;;19.57;66.26;97215.16;108973;1266;22990;-82
2023/05/26 10:31:33;;;;;;;15.10;8.90;;;;;;;19.58;66.43;97212.91;108964;1272;22627;-82
2023/05/26 10:34:14;;;;;;;12.20;9.00;;;;;;;19.46;66.21;97210.90;108986;1274;22521;-81
2023/05/26 10:36:59;;;;;;;11.10;8.60;;;;;;;19.31;66.26;97208.30;108947;1273;24222;-82
2023/05/26 10:39:30;;;;;;;12.50;8.80;;;;;;;19.28;67.02;97208.61;108966;1273;22519;-81
2023/05/26 10:42:01;;;;;;;10.90;8.70;;;;;;;19.32;67.35;97207.95;108979;1273;24390;-82
2023/05/26 10:44:45;;;;;;;11.10;8.40;;;;;;;19.32;67.45;97206.77;108971;1273;24232;-81
2023/05/26 10:47:18;;;;;;;13.40;8.70;;;;;;;19.27;66.92;97203.20;108897;1272;25402;-82
2023/05/26 10:49:59;;;;;;;11.90;9.50;;;;;;;19.25;67.01;97206.80;108996;1270;22572;-82
2023/05/26 10:52:48;;;;;;;10.10;8.80;;;;;;;19.21;66.42;97206.00;108970;1274;22524;-82
2023/05/26 10:55:32;;;;;;;14.50;8.00;;;;;;;19.24;66.66;97199.52;108950;1274;22531;-82
2023/05/26 10:58:34;;;;;;;9.50;7.40;;;;;;;19.27;66.85;97205.20;108984;1261;22530;-82
2023/05/26 11:01:06;;;;;;;9.40;7.50;;;;;;;19.32;66.91;97200.42;108954;1274;22518;-82
2023/05/26 11:03:40;;;;;;;9.90;8.00;;;;;;;19.41;67.86;97202.86;108955;1274;22521;-82
2023/05/26 11:06:12;;;;;;;9.30;7.60;;;;;;;19.50;67.47;97202.02;108970;1274;23478;-82
2023/05/26 11:08:47;;;;;;;8.60;7.40;;;;;;;19.58;67.40;97197.91;108947;1273;23041;-82
2023/05/26 11:11:29;;;;;;;8.90;7.60;;;;;;;19.66;67.31;97194.92;108964;1271;25328;-82
2023/05/26 11:14:06;;;;;;;11.50;7.70;;;;;;;19.75;67.36;97195.91;108952;1273;22550;-82
2023/05/26 11:16:39;;;;;;;9.20;6.90;;;;;;;19.82;67.13;97195.59;108936;1272;22688;-82
2023/05/26 11:19:11;;;;;;;8.70;7.60;;;;;;;19.92;67.01;97186.52;108976;1273;22575;-82
2023/05/26 11:21:43;;;;;;;10.40;6.90;;;;;;;20.01;66.59;97186.17;108966;1273;25984;-82
2023/05/26 11:24:15;;;;;;;9.30;7.30;;;;;;;20.11;66.92;97181.52;108937;1273;24264;-82
2023/05/26 11:26:46;;;;;;;10.30;7.40;;;;;;;20.21;66.78;97182.02;108943;1274;24344;-82
2023/05/26 11:29:18;;;;;;;9.80;7.20;;;;;;;20.35;66.78;97181.43;108949;1273;22523;-82
2023/05/26 11:31:50;;;;;;;8.90;6.90;;;;;;;20.41;66.30;97180.96;108945;1273;22542;-82